sensor_id;sensor_type;location;lat;lon;timestamp;pressure;altitude;pressure_sealevel;temperature;humidity
62952;BME280;52163;52.212;-1.002;2022-07-04T00:00:05;101053.41;;;12.09;70.00
62952;BME280;52163;52.212;-1.002;2022-07-04T00:02:32;101050.89;;;12.06;70.07
62952;BME280;52163;52.212;-1.002;2022-07-04T00:04:58;101053.65;;;12.01;70.01
62952;BME280;52163;52.212;-1.002;2022-07-04T00:07:23;101057.13;;;11.96;70.04
62952;BME280;52163;52.212;-1.002;2022-07-04T00:09:49;101052.75;;;11.89;70.06
62952;BME280;52163;52.212;-1.002;2022-07-04T00:12:15;101047.09;;;11.83;70.29
62952;BME280;52163;52.212;-1.002;2022-07-04T00:14:40;101045.76;;;11.78;70.27
62952;BME280;52163;52.212;-1.002;2022-07-04T00:17:06;101046.98;;;11.72;70.36
62952;BME280;52163;52.212;-1.002;2022-07-04T00:19:31;101044.65;;;11.69;70.54
62952;BME280;52163;52.212;-1.002;2022-07-04T00:21:57;101042.09;;;11.65;70.68
62952;BME280;52163;52.212;-1.002;2022-07-04T00:24:22;101037.14;;;11.58;70.84
62952;BME280;52163;52.212;-1.002;2022-07-04T00:26:48;101037.05;;;11.53;70.74
62952;BME280;52163;52.212;-1.002;2022-07-04T00:29:13;101041.56;;;11.49;70.67
62952;BME280;52163;52.212;-1.002;2022-07-04T00:31:39;101045.11;;;11.42;70.83
62952;BME280;52163;52.212;-1.002;2022-07-04T00:34:05;101041.97;;;11.35;71.20
62952;BME280;52163;52.212;-1.002;2022-07-04T00:36:31;101041.31;;;11.27;71.31
62952;BME280;52163;52.212;-1.002;2022-07-04T00:38:56;101036.41;;;11.20;71.31
62952;BME280;52163;52.212;-1.002;2022-07-04T00:41:22;101030.00;;;11.14;71.46
62952;BME280;52163;52.212;-1.002;2022-07-04T00:44:05;101027.41;;;11.10;71.70
62952;BME280;52163;52.212;-1.002;2022-07-04T00:46:31;101026.45;;;11.08;71.56
62952;BME280;52163;52.212;-1.002;2022-07-04T00:48:57;101030.46;;;11.05;71.38
62952;BME280;52163;52.212;-1.002;2022-07-04T00:51:23;101033.50;;;11.01;71.69
62952;BME280;52163;52.212;-1.002;2022-07-04T00:53:53;101033.95;;;10.99;71.92
62952;BME280;52163;52.212;-1.002;2022-07-04T00:56:20;101034.62;;;10.97;71.95
62952;BME280;52163;52.212;-1.002;2022-07-04T00:58:45;101034.27;;;10.94;72.02
62952;BME280;52163;52.212;-1.002;2022-07-04T01:01:11;101032.48;;;10.87;72.28
62952;BME280;52163;52.212;-1.002;2022-07-04T01:03:36;101028.11;;;10.83;72.40
62952;BME280;52163;52.212;-1.002;2022-07-04T01:06:02;101029.65;;;10.81;72.41
62952;BME280;52163;52.212;-1.002;2022-07-04T01:08:28;101031.61;;;10.80;72.47
62952;BME280;52163;52.212;-1.002;2022-07-04T01:10:54;101025.42;;;10.81;72.53
62952;BME280;52163;52.212;-1.002;2022-07-04T01:13:20;101025.89;;;10.82;72.50
62952;BME280;52163;52.212;-1.002;2022-07-04T01:15:46;101023.09;;;10.81;72.71
62952;BME280;52163;52.212;-1.002;2022-07-04T01:18:12;101022.70;;;10.82;72.96
62952;BME280;52163;52.212;-1.002;2022-07-04T01:20:38;101022.73;;;10.81;72.67
62952;BME280;52163;52.212;-1.002;2022-07-04T01:23:04;101021.98;;;10.79;73.07
62952;BME280;52163;52.212;-1.002;2022-07-04T01:25:30;101019.14;;;10.75;73.19
62952;BME280;52163;52.212;-1.002;2022-07-04T01:27:58;101017.08;;;10.71;72.96
62952;BME280;52163;52.212;-1.002;2022-07-04T01:30:23;101019.54;;;10.68;73.27
62952;BME280;52163;52.212;-1.002;2022-07-04T01:32:49;101020.10;;;10.70;73.47
62952;BME280;52163;52.212;-1.002;2022-07-04T01:35:14;101017.80;;;10.74;73.79
62952;BME280;52163;52.212;-1.002;2022-07-04T01:37:40;101015.07;;;10.79;73.74
62952;BME280;52163;52.212;-1.002;2022-07-04T01:40:07;101019.92;;;10.84;73.75
62952;BME280;52163;52.212;-1.002;2022-07-04T01:42:34;101018.73;;;10.87;73.60
62952;BME280;52163;52.212;-1.002;2022-07-04T01:44:59;101014.38;;;10.89;73.87
62952;BME280;52163;52.212;-1.002;2022-07-04T01:47:25;101007.51;;;10.92;73.84
62952;BME280;52163;52.212;-1.002;2022-07-04T01:49:51;101018.12;;;10.95;73.53
62952;BME280;52163;52.212;-1.002;2022-07-04T01:52:17;101024.72;;;10.97;73.74
62952;BME280;52163;52.212;-1.002;2022-07-04T01:54:42;101024.39;;;10.97;73.55
62952;BME280;52163;52.212;-1.002;2022-07-04T01:57:08;101016.63;;;10.96;73.50
62952;BME280;52163;52.212;-1.002;2022-07-04T01:59:33;101012.31;;;10.98;73.78
62952;BME280;52163;52.212;-1.002;2022-07-04T02:02:17;101009.55;;;11.00;73.90
62952;BME280;52163;52.212;-1.002;2022-07-04T02:04:43;101007.06;;;11.07;73.82
62952;BME280;52163;52.212;-1.002;2022-07-04T02:07:08;101005.89;;;11.12;73.73
62952;BME280;52163;52.212;-1.002;2022-07-04T02:09:33;101004.33;;;11.15;73.50
62952;BME280;52163;52.212;-1.002;2022-07-04T02:11:59;101004.61;;;11.16;73.30
62952;BME280;52163;52.212;-1.002;2022-07-04T02:14:43;101004.23;;;11.13;73.34
62952;BME280;52163;52.212;-1.002;2022-07-04T02:17:09;100995.94;;;11.13;73.41
62952;BME280;52163;52.212;-1.002;2022-07-04T02:19:35;100994.27;;;11.18;73.57
62952;BME280;52163;52.212;-1.002;2022-07-04T02:22:01;100989.69;;;11.21;73.53
62952;BME280;52163;52.212;-1.002;2022-07-04T02:24:26;100994.35;;;11.26;73.69
62952;BME280;52163;52.212;-1.002;2022-07-04T02:26:51;100993.17;;;11.35;73.74
62952;BME280;52163;52.212;-1.002;2022-07-04T02:29:17;100989.34;;;11.43;73.81
62952;BME280;52163;52.212;-1.002;2022-07-04T02:31:43;100987.66;;;11.47;73.40
62952;BME280;52163;52.212;-1.002;2022-07-04T02:34:08;100990.05;;;11.49;73.47
62952;BME280;52163;52.212;-1.002;2022-07-04T02:36:34;100987.91;;;11.49;73.19
62952;BME280;52163;52.212;-1.002;2022-07-04T02:39:00;100987.91;;;11.49;73.03
62952;BME280;52163;52.212;-1.002;2022-07-04T02:41:27;100996.52;;;11.47;72.98
62952;BME280;52163;52.212;-1.002;2022-07-04T02:43:53;101004.47;;;11.44;73.23
62952;BME280;52163;52.212;-1.002;2022-07-04T02:46:18;101002.14;;;11.45;73.30
62952;BME280;52163;52.212;-1.002;2022-07-04T02:48:43;101001.45;;;11.48;73.24
62952;BME280;52163;52.212;-1.002;2022-07-04T02:51:09;100993.20;;;11.50;73.18
62952;BME280;52163;52.212;-1.002;2022-07-04T02:53:34;100995.15;;;11.53;73.30
62952;BME280;52163;52.212;-1.002;2022-07-04T02:56:00;101000.23;;;11.53;73.13
62952;BME280;52163;52.212;-1.002;2022-07-04T02:58:29;101001.48;;;11.50;73.05
62952;BME280;52163;52.212;-1.002;2022-07-04T03:00:55;100999.52;;;11.44;72.95
62952;BME280;52163;52.212;-1.002;2022-07-04T03:03:21;101004.23;;;11.36;73.24
62952;BME280;52163;52.212;-1.002;2022-07-04T03:05:47;101010.08;;;11.32;73.39
62952;BME280;52163;52.212;-1.002;2022-07-04T03:08:12;101012.16;;;11.29;73.49
62952;BME280;52163;52.212;-1.002;2022-07-04T03:10:37;101012.75;;;11.29;73.63
62952;BME280;52163;52.212;-1.002;2022-07-04T03:13:03;101008.27;;;11.29;73.59
62952;BME280;52163;52.212;-1.002;2022-07-04T03:15:28;101010.71;;;11.27;73.50
62952;BME280;52163;52.212;-1.002;2022-07-04T03:17:54;101008.86;;;11.25;73.73
62952;BME280;52163;52.212;-1.002;2022-07-04T03:20:19;101010.41;;;11.26;73.56
62952;BME280;52163;52.212;-1.002;2022-07-04T03:22:45;101004.09;;;11.25;73.80
62952;BME280;52163;52.212;-1.002;2022-07-04T03:25:10;101008.06;;;11.24;73.86
62952;BME280;52163;52.212;-1.002;2022-07-04T03:27:35;101008.66;;;11.23;73.95
62952;BME280;52163;52.212;-1.002;2022-07-04T03:30:01;101005.34;;;11.22;73.91
62952;BME280;52163;52.212;-1.002;2022-07-04T03:32:26;101005.64;;;11.23;74.06
62952;BME280;52163;52.212;-1.002;2022-07-04T03:34:52;101001.73;;;11.27;74.00
62952;BME280;52163;52.212;-1.002;2022-07-04T03:37:17;100997.52;;;11.29;74.06
62952;BME280;52163;52.212;-1.002;2022-07-04T03:39:42;100996.40;;;11.34;73.64
62952;BME280;52163;52.212;-1.002;2022-07-04T03:42:08;100993.74;;;11.33;73.78
62952;BME280;52163;52.212;-1.002;2022-07-04T03:44:33;100994.20;;;11.31;73.86
62952;BME280;52163;52.212;-1.002;2022-07-04T03:46:59;100997.07;;;11.27;73.71
62952;BME280;52163;52.212;-1.002;2022-07-04T03:49:24;100995.90;;;11.23;73.76
62952;BME280;52163;52.212;-1.002;2022-07-04T03:51:50;100988.05;;;11.18;73.81
62952;BME280;52163;52.212;-1.002;2022-07-04T03:54:15;100985.38;;;11.15;73.87
62952;BME280;52163;52.212;-1.002;2022-07-04T03:56:41;100985.05;;;11.15;73.81
62952;BME280;52163;52.212;-1.002;2022-07-04T03:59:06;100983.42;;;11.15;73.97
62952;BME280;52163;52.212;-1.002;2022-07-04T04:01:31;100986.39;;;11.16;73.81
62952;BME280;52163;52.212;-1.002;2022-07-04T04:03:57;100986.35;;;11.17;73.58
62952;BME280;52163;52.212;-1.002;2022-07-04T04:06:41;100988.67;;;11.16;73.66
62952;BME280;52163;52.212;-1.002;2022-07-04T04:09:06;100992.38;;;11.10;73.37
62952;BME280;52163;52.212;-1.002;2022-07-04T04:11:31;100994.32;;;11.04;73.50
62952;BME280;52163;52.212;-1.002;2022-07-04T04:13:57;100989.38;;;10.97;73.47
62952;BME280;52163;52.212;-1.002;2022-07-04T04:16:22;100991.77;;;10.92;73.59
62952;BME280;52163;52.212;-1.002;2022-07-04T04:18:48;100994.58;;;10.89;73.66
62952;BME280;52163;52.212;-1.002;2022-07-04T04:21:13;100991.71;;;10.90;73.70
62952;BME280;52163;52.212;-1.002;2022-07-04T04:23:38;101000.00;;;10.90;73.60
62952;BME280;52163;52.212;-1.002;2022-07-04T04:26:04;100998.61;;;10.86;73.33
62952;BME280;52163;52.212;-1.002;2022-07-04T04:28:29;100994.83;;;10.84;73.64
62952;BME280;52163;52.212;-1.002;2022-07-04T04:30:54;100998.80;;;10.82;73.75
62952;BME280;52163;52.212;-1.002;2022-07-04T04:33:20;100998.05;;;10.80;73.58
62952;BME280;52163;52.212;-1.002;2022-07-04T04:35:45;100998.05;;;10.80;73.60
62952;BME280;52163;52.212;-1.002;2022-07-04T04:38:11;101002.06;;;10.81;73.63
62952;BME280;52163;52.212;-1.002;2022-07-04T04:40:36;101001.71;;;10.84;73.74
62952;BME280;52163;52.212;-1.002;2022-07-04T04:43:02;101003.67;;;10.94;73.80
62952;BME280;52163;52.212;-1.002;2022-07-04T04:45:27;101002.90;;;11.05;73.71
62952;BME280;52163;52.212;-1.002;2022-07-04T04:47:52;101004.48;;;11.15;73.50
62952;BME280;52163;52.212;-1.002;2022-07-04T04:50:20;101002.86;;;11.35;73.32
62952;BME280;52163;52.212;-1.002;2022-07-04T04:52:45;101006.19;;;11.73;72.64
62952;BME280;52163;52.212;-1.002;2022-07-04T04:55:11;101003.93;;;12.01;72.14
62952;BME280;52163;52.212;-1.002;2022-07-04T04:57:36;101004.11;;;12.76;70.77
62952;BME280;52163;52.212;-1.002;2022-07-04T05:00:03;101001.06;;;13.47;69.35
62952;BME280;52163;52.212;-1.002;2022-07-04T05:02:32;101006.66;;;14.11;67.81
62952;BME280;52163;52.212;-1.002;2022-07-04T05:04:57;101005.05;;;14.48;66.60
62952;BME280;52163;52.212;-1.002;2022-07-04T05:07:23;101000.89;;;14.59;66.01
62952;BME280;52163;52.212;-1.002;2022-07-04T05:09:48;101008.45;;;14.63;65.34
62952;BME280;52163;52.212;-1.002;2022-07-04T05:12:13;101004.11;;;14.77;64.86
62952;BME280;52163;52.212;-1.002;2022-07-04T05:14:39;101012.72;;;14.79;64.25
62952;BME280;52163;52.212;-1.002;2022-07-04T05:17:04;101015.52;;;14.75;64.05
62952;BME280;52163;52.212;-1.002;2022-07-04T05:19:30;101010.86;;;14.64;63.74
62952;BME280;52163;52.212;-1.002;2022-07-04T05:21:55;101014.92;;;14.49;63.93
62952;BME280;52163;52.212;-1.002;2022-07-04T05:24:21;101013.04;;;14.43;63.90
62952;BME280;52163;52.212;-1.002;2022-07-04T05:26:46;101013.77;;;14.37;64.00
62952;BME280;52163;52.212;-1.002;2022-07-04T05:29:12;101012.27;;;14.31;64.32
62952;BME280;52163;52.212;-1.002;2022-07-04T05:31:37;101018.40;;;14.24;64.41
62952;BME280;52163;52.212;-1.002;2022-07-04T05:34:03;101019.12;;;14.18;64.27
62952;BME280;52163;52.212;-1.002;2022-07-04T05:36:28;101013.85;;;14.12;64.65
62952;BME280;52163;52.212;-1.002;2022-07-04T05:38:54;101009.45;;;14.12;64.64
62952;BME280;52163;52.212;-1.002;2022-07-04T05:41:19;101003.55;;;14.10;64.75
62952;BME280;52163;52.212;-1.002;2022-07-04T05:43:45;101002.11;;;14.13;64.94
62952;BME280;52163;52.212;-1.002;2022-07-04T05:46:10;101004.31;;;14.17;64.77
62952;BME280;52163;52.212;-1.002;2022-07-04T05:48:36;101003.48;;;14.21;64.70
62952;BME280;52163;52.212;-1.002;2022-07-04T05:51:05;101004.73;;;14.24;64.64
62952;BME280;52163;52.212;-1.002;2022-07-04T05:53:31;101002.89;;;14.25;64.85
62952;BME280;52163;52.212;-1.002;2022-07-04T05:55:57;101005.58;;;14.37;64.85
62952;BME280;52163;52.212;-1.002;2022-07-04T05:58:22;101009.05;;;14.62;64.51
62952;BME280;52163;52.212;-1.002;2022-07-04T06:00:48;101010.89;;;15.03;64.47
62952;BME280;52163;52.212;-1.002;2022-07-04T06:03:13;101012.98;;;15.53;63.38
62952;BME280;52163;52.212;-1.002;2022-07-04T06:05:39;101012.42;;;15.90;62.57
62952;BME280;52163;52.212;-1.002;2022-07-04T06:08:04;101015.52;;;16.11;61.79
62952;BME280;52163;52.212;-1.002;2022-07-04T06:10:29;101004.59;;;16.37;61.34
62952;BME280;52163;52.212;-1.002;2022-07-04T06:12:55;101006.81;;;16.46;61.25
62952;BME280;52163;52.212;-1.002;2022-07-04T06:15:21;101007.92;;;16.45;61.27
62952;BME280;52163;52.212;-1.002;2022-07-04T06:17:46;101008.11;;;16.31;60.85
62952;BME280;52163;52.212;-1.002;2022-07-04T06:20:12;101010.92;;;16.10;61.14
62952;BME280;52163;52.212;-1.002;2022-07-04T06:22:42;101008.39;;;15.86;61.51
62952;BME280;52163;52.212;-1.002;2022-07-04T06:25:15;101011.23;;;15.75;61.93
62952;BME280;52163;52.212;-1.002;2022-07-04T06:27:42;101011.52;;;15.80;62.26
62952;BME280;52163;52.212;-1.002;2022-07-04T06:30:09;101012.21;;;15.93;62.27
62952;BME280;52163;52.212;-1.002;2022-07-04T06:32:48;101010.23;;;16.07;62.00
62952;BME280;52163;52.212;-1.002;2022-07-04T06:35:18;101009.36;;;16.21;61.83
62952;BME280;52163;52.212;-1.002;2022-07-04T06:38:02;101001.18;;;16.26;61.62
62952;BME280;52163;52.212;-1.002;2022-07-04T06:40:27;101000.63;;;16.21;61.67
62952;BME280;52163;52.212;-1.002;2022-07-04T06:42:53;101003.73;;;16.13;61.73
62952;BME280;52163;52.212;-1.002;2022-07-04T06:45:18;100998.08;;;16.10;61.64
62952;BME280;52163;52.212;-1.002;2022-07-04T06:47:44;100990.63;;;16.24;61.73
62952;BME280;52163;52.212;-1.002;2022-07-04T06:50:11;100986.04;;;16.40;61.48
62952;BME280;52163;52.212;-1.002;2022-07-04T06:52:37;100983.05;;;16.39;61.05
62952;BME280;52163;52.212;-1.002;2022-07-04T06:55:04;100990.77;;;16.44;61.13
62952;BME280;52163;52.212;-1.002;2022-07-04T06:57:30;100995.88;;;16.55;60.99
62952;BME280;52163;52.212;-1.002;2022-07-04T06:59:55;100994.88;;;16.75;60.76
62952;BME280;52163;52.212;-1.002;2022-07-04T07:02:20;100992.02;;;16.84;60.58
62952;BME280;52163;52.212;-1.002;2022-07-04T07:04:46;100989.11;;;16.88;60.51
62952;BME280;52163;52.212;-1.002;2022-07-04T07:07:11;100983.58;;;16.80;60.37
62952;BME280;52163;52.212;-1.002;2022-07-04T07:09:36;100986.06;;;16.67;60.31
62952;BME280;52163;52.212;-1.002;2022-07-04T07:12:03;100984.73;;;16.52;60.32
62952;BME280;52163;52.212;-1.002;2022-07-04T07:14:28;100988.17;;;16.42;60.66
62952;BME280;52163;52.212;-1.002;2022-07-04T07:16:55;100987.61;;;16.33;60.95
62952;BME280;52163;52.212;-1.002;2022-07-04T07:19:20;100987.77;;;16.33;61.24
62952;BME280;52163;52.212;-1.002;2022-07-04T07:21:46;100988.46;;;16.40;61.09
62952;BME280;52163;52.212;-1.002;2022-07-04T07:24:11;100991.02;;;16.47;61.12
62952;BME280;52163;52.212;-1.002;2022-07-04T07:26:37;100994.17;;;16.59;61.41
62952;BME280;52163;52.212;-1.002;2022-07-04T07:29:02;100990.90;;;16.69;60.92
62952;BME280;52163;52.212;-1.002;2022-07-04T07:31:27;100984.43;;;16.79;60.87
62952;BME280;52163;52.212;-1.002;2022-07-04T07:33:53;100983.20;;;16.88;60.09
62952;BME280;52163;52.212;-1.002;2022-07-04T07:36:19;100985.14;;;16.90;59.46
62952;BME280;52163;52.212;-1.002;2022-07-04T07:38:44;100983.73;;;16.90;59.37
62952;BME280;52163;52.212;-1.002;2022-07-04T07:41:10;100980.14;;;16.90;58.98
62952;BME280;52163;52.212;-1.002;2022-07-04T07:43:36;100975.55;;;16.85;58.85
62952;BME280;52163;52.212;-1.002;2022-07-04T07:46:05;100976.38;;;16.83;58.98
62952;BME280;52163;52.212;-1.002;2022-07-04T07:48:31;100978.01;;;16.83;58.89
62952;BME280;52163;52.212;-1.002;2022-07-04T07:50:57;100974.83;;;16.81;58.79
62952;BME280;52163;52.212;-1.002;2022-07-04T07:53:22;100978.98;;;16.80;58.74
62952;BME280;52163;52.212;-1.002;2022-07-04T07:55:48;100980.14;;;16.79;58.78
62952;BME280;52163;52.212;-1.002;2022-07-04T07:58:13;100978.52;;;16.81;59.01
62952;BME280;52163;52.212;-1.002;2022-07-04T08:00:38;100982.26;;;16.84;58.95
62952;BME280;52163;52.212;-1.002;2022-07-04T08:03:04;100983.98;;;16.87;59.01
62952;BME280;52163;52.212;-1.002;2022-07-04T08:05:48;100989.83;;;16.90;59.07
62952;BME280;52163;52.212;-1.002;2022-07-04T08:08:13;100994.53;;;16.98;58.89
62952;BME280;52163;52.212;-1.002;2022-07-04T08:10:39;100995.90;;;17.15;58.77
62952;BME280;52163;52.212;-1.002;2022-07-04T08:13:05;101001.92;;;17.42;58.54
62952;BME280;52163;52.212;-1.002;2022-07-04T08:15:31;101001.05;;;17.75;57.67
62952;BME280;52163;52.212;-1.002;2022-07-04T08:17:57;101000.62;;;17.91;57.28
62952;BME280;52163;52.212;-1.002;2022-07-04T08:20:23;100994.98;;;17.85;56.80
62952;BME280;52163;52.212;-1.002;2022-07-04T08:22:48;100999.71;;;17.71;56.37
62952;BME280;52163;52.212;-1.002;2022-07-04T08:25:14;101001.86;;;17.58;56.25
62952;BME280;52163;52.212;-1.002;2022-07-04T08:27:40;100997.36;;;17.58;56.10
62952;BME280;52163;52.212;-1.002;2022-07-04T08:30:07;100995.87;;;17.66;55.83
62952;BME280;52163;52.212;-1.002;2022-07-04T08:32:33;100996.18;;;17.80;55.46
62952;BME280;52163;52.212;-1.002;2022-07-04T08:34:59;100993.48;;;17.80;55.12
62952;BME280;52163;52.212;-1.002;2022-07-04T08:37:24;101000.02;;;17.81;54.83
62952;BME280;52163;52.212;-1.002;2022-07-04T08:39:50;101002.00;;;17.78;54.48
62952;BME280;52163;52.212;-1.002;2022-07-04T08:42:18;100993.66;;;17.76;54.07
62952;BME280;52163;52.212;-1.002;2022-07-04T08:44:52;100992.19;;;17.82;53.95
62952;BME280;52163;52.212;-1.002;2022-07-04T08:47:20;100997.58;;;17.91;53.82
62952;BME280;52163;52.212;-1.002;2022-07-04T08:49:52;100997.52;;;17.95;53.36
62952;BME280;52163;52.212;-1.002;2022-07-04T08:52:28;100993.05;;;18.00;52.95
62952;BME280;52163;52.212;-1.002;2022-07-04T08:54:56;100987.54;;;18.07;53.08
62952;BME280;52163;52.212;-1.002;2022-07-04T08:57:41;100983.58;;;18.09;52.52
62952;BME280;52163;52.212;-1.002;2022-07-04T09:00:25;100982.61;;;18.04;52.43
62952;BME280;52163;52.212;-1.002;2022-07-04T09:02:51;100977.50;;;18.11;52.26
62952;BME280;52163;52.212;-1.002;2022-07-04T09:05:17;100973.33;;;18.31;51.77
62952;BME280;52163;52.212;-1.002;2022-07-04T09:07:44;100977.48;;;18.61;51.30
62952;BME280;52163;52.212;-1.002;2022-07-04T09:10:09;100976.98;;;18.84;50.69
62952;BME280;52163;52.212;-1.002;2022-07-04T09:12:35;100970.49;;;18.86;50.12
62952;BME280;52163;52.212;-1.002;2022-07-04T09:15:00;100969.29;;;18.80;49.91
62952;BME280;52163;52.212;-1.002;2022-07-04T09:17:26;100964.21;;;18.91;50.13
62952;BME280;52163;52.212;-1.002;2022-07-04T09:20:17;100971.48;;;19.28;50.13
62952;BME280;52163;52.212;-1.002;2022-07-04T09:22:44;100979.25;;;19.65;49.46
62952;BME280;52163;52.212;-1.002;2022-07-04T09:25:11;100982.79;;;19.83;48.54
62952;BME280;52163;52.212;-1.002;2022-07-04T09:27:48;100984.73;;;19.92;48.13
62952;BME280;52163;52.212;-1.002;2022-07-04T09:30:19;100992.84;;;19.99;48.08
62952;BME280;52163;52.212;-1.002;2022-07-04T09:32:47;100994.41;;;20.13;48.33
62952;BME280;52163;52.212;-1.002;2022-07-04T09:35:20;100994.77;;;20.21;47.68
62952;BME280;52163;52.212;-1.002;2022-07-04T09:37:50;101004.73;;;20.20;47.20
62952;BME280;52163;52.212;-1.002;2022-07-04T09:40:28;101002.61;;;20.27;46.83
62952;BME280;52163;52.212;-1.002;2022-07-04T09:42:56;101004.84;;;20.30;46.91
62952;BME280;52163;52.212;-1.002;2022-07-04T09:45:23;101009.84;;;20.28;47.00
62952;BME280;52163;52.212;-1.002;2022-07-04T09:47:57;101010.31;;;20.12;47.10
62952;BME280;52163;52.212;-1.002;2022-07-04T09:50:25;101014.42;;;19.98;47.55
62952;BME280;52163;52.212;-1.002;2022-07-04T09:52:59;101016.82;;;19.98;47.74
62952;BME280;52163;52.212;-1.002;2022-07-04T09:55:33;101014.60;;;19.98;47.83
62952;BME280;52163;52.212;-1.002;2022-07-04T09:58:01;101015.33;;;20.00;47.34
62952;BME280;52163;52.212;-1.002;2022-07-04T10:00:31;101014.95;;;19.97;47.46
62952;BME280;52163;52.212;-1.002;2022-07-04T10:03:18;101014.43;;;19.98;47.46
62952;BME280;52163;52.212;-1.002;2022-07-04T10:06:01;101014.46;;;19.96;47.36
62952;BME280;52163;52.212;-1.002;2022-07-04T10:08:26;101018.60;;;19.92;47.78
62952;BME280;52163;52.212;-1.002;2022-07-04T10:10:56;101015.38;;;19.94;47.70
62952;BME280;52163;52.212;-1.002;2022-07-04T10:13:23;101012.60;;;19.93;47.57
62952;BME280;52163;52.212;-1.002;2022-07-04T10:15:49;101015.92;;;19.95;47.74
62952;BME280;52163;52.212;-1.002;2022-07-04T10:18:17;101018.64;;;19.98;47.69
62952;BME280;52163;52.212;-1.002;2022-07-04T10:20:44;101017.81;;;19.95;47.63
62952;BME280;52163;52.212;-1.002;2022-07-04T10:23:11;101019.69;;;19.90;47.98
62952;BME280;52163;52.212;-1.002;2022-07-04T10:25:36;101020.37;;;19.84;48.19
62952;BME280;52163;52.212;-1.002;2022-07-04T10:28:03;101020.81;;;19.81;48.48
62952;BME280;52163;52.212;-1.002;2022-07-04T10:30:30;101022.96;;;19.81;48.32
62952;BME280;52163;52.212;-1.002;2022-07-04T10:32:59;101025.02;;;19.82;48.39
62952;BME280;52163;52.212;-1.002;2022-07-04T10:38:13;101031.34;;;20.04;48.32
62952;BME280;52163;52.212;-1.002;2022-07-04T10:40:47;101033.11;;;20.14;48.29
62952;BME280;52163;52.212;-1.002;2022-07-04T10:48:28;101028.10;;;20.13;47.76
62952;BME280;52163;52.212;-1.002;2022-07-04T10:51:05;101028.02;;;20.16;47.92
62952;BME280;52163;52.212;-1.002;2022-07-04T10:53:32;101024.98;;;20.28;47.91
62952;BME280;52163;52.212;-1.002;2022-07-04T10:58:45;101023.30;;;20.44;47.38
62952;BME280;52163;52.212;-1.002;2022-07-04T11:01:12;101016.87;;;20.65;47.52
62952;BME280;52163;52.212;-1.002;2022-07-04T11:03:48;101014.91;;;20.80;46.96
62952;BME280;52163;52.212;-1.002;2022-07-04T11:09:30;101019.65;;;20.95;46.57
62952;BME280;52163;52.212;-1.002;2022-07-04T11:12:00;101015.40;;;21.05;46.41
62952;BME280;52163;52.212;-1.002;2022-07-04T11:14:44;101011.14;;;21.23;46.41
62952;BME280;52163;52.212;-1.002;2022-07-04T11:17:14;101011.14;;;21.36;46.24
62952;BME280;52163;52.212;-1.002;2022-07-04T11:19:41;101016.67;;;21.36;46.02
62952;BME280;52163;52.212;-1.002;2022-07-04T11:22:08;101016.98;;;21.31;45.93
62952;BME280;52163;52.212;-1.002;2022-07-04T11:24:35;101011.27;;;21.27;45.79
62952;BME280;52163;52.212;-1.002;2022-07-04T11:27:02;101008.02;;;21.38;45.54
62952;BME280;52163;52.212;-1.002;2022-07-04T11:29:29;101012.63;;;21.58;45.41
62952;BME280;52163;52.212;-1.002;2022-07-04T11:31:55;101009.73;;;21.73;44.88
62952;BME280;52163;52.212;-1.002;2022-07-04T11:34:21;101011.02;;;21.85;44.76
62952;BME280;52163;52.212;-1.002;2022-07-04T11:36:49;101008.59;;;22.02;44.32
62952;BME280;52163;52.212;-1.002;2022-07-04T11:39:16;101008.06;;;22.16;43.95
62952;BME280;52163;52.212;-1.002;2022-07-04T11:41:54;101012.95;;;22.31;43.70
62952;BME280;52163;52.212;-1.002;2022-07-04T11:44:39;101016.90;;;22.41;43.37
62952;BME280;52163;52.212;-1.002;2022-07-04T11:49:55;101015.35;;;22.46;43.16
62952;BME280;52163;52.212;-1.002;2022-07-04T11:52:50;101013.71;;;22.53;42.96
62952;BME280;52163;52.212;-1.002;2022-07-04T11:55:19;101009.70;;;22.71;43.26
62952;BME280;52163;52.212;-1.002;2022-07-04T11:57:47;101007.94;;;22.88;43.02
62952;BME280;52163;52.212;-1.002;2022-07-04T12:00:18;101007.73;;;22.93;42.64
62952;BME280;52163;52.212;-1.002;2022-07-04T12:02:48;101007.84;;;23.01;42.84
62952;BME280;52163;52.212;-1.002;2022-07-04T12:05:15;101001.98;;;23.09;42.68
62952;BME280;52163;52.212;-1.002;2022-07-04T12:07:43;101003.45;;;23.22;42.38
62952;BME280;52163;52.212;-1.002;2022-07-04T12:13:03;101000.05;;;23.54;42.35
62952;BME280;52163;52.212;-1.002;2022-07-04T12:18:17;101002.10;;;23.97;41.57
62952;BME280;52163;52.212;-1.002;2022-07-04T12:20:43;101007.60;;;24.01;41.26
62952;BME280;52163;52.212;-1.002;2022-07-04T12:23:09;101006.52;;;24.06;41.33
62952;BME280;52163;52.212;-1.002;2022-07-04T12:25:37;101008.14;;;24.05;40.61
62952;BME280;52163;52.212;-1.002;2022-07-04T12:28:06;101005.41;;;23.91;40.62
62952;BME280;52163;52.212;-1.002;2022-07-04T12:30:34;101008.67;;;23.90;40.42
62952;BME280;52163;52.212;-1.002;2022-07-04T12:33:07;101009.35;;;23.89;40.27
62952;BME280;52163;52.212;-1.002;2022-07-04T12:35:54;101008.33;;;23.91;40.51
62952;BME280;52163;52.212;-1.002;2022-07-04T12:40:53;101012.00;;;24.17;40.47
62952;BME280;52163;52.212;-1.002;2022-07-04T12:43:19;101009.02;;;24.18;40.40
62952;BME280;52163;52.212;-1.002;2022-07-04T12:45:50;101011.83;;;24.17;40.27
62952;BME280;52163;52.212;-1.002;2022-07-04T12:48:19;101011.52;;;24.14;39.98
62952;BME280;52163;52.212;-1.002;2022-07-04T12:50:45;101005.51;;;24.12;40.11
62952;BME280;52163;52.212;-1.002;2022-07-04T12:53:11;101008.30;;;24.20;39.89
62952;BME280;52163;52.212;-1.002;2022-07-04T12:55:44;101006.52;;;24.08;39.81
62952;BME280;52163;52.212;-1.002;2022-07-04T12:58:11;101008.85;;;23.75;40.14
62952;BME280;52163;52.212;-1.002;2022-07-04T13:00:37;101012.05;;;23.55;40.54
62952;BME280;52163;52.212;-1.002;2022-07-04T13:03:04;101006.86;;;23.38;41.12
62952;BME280;52163;52.212;-1.002;2022-07-04T13:05:30;101004.46;;;23.19;41.35